Time,TemperatureF,DewpointF,PressureIn,WindDirection,WindDirectionDegrees,WindSpeedMPH,WindSpeedGustMPH,Humidity,HourlyPrecipIn,Conditions,Clouds,dailyrainin,SoftwareType,DateUTC
2013-01-17 00:02:00,27.0,8.0,-100.00,WSW,243,11.0,16.0,45,0.00,,,-99.99,,2013-01-17 07:02:00,
2013-01-17 00:12:00,27.0,8.0,-100.00,WSW,248,12.0,19.0,43,0.00,,,-99.99,,2013-01-17 07:12:00,
2013-01-17 00:22:00,27.0,8.0,-100.00,WSW,256,9.0,16.0,44,0.00,,,-99.99,,2013-01-17 07:22:00,
2013-01-17 00:32:00,25.0,8.0,-100.00,WSW,244,7.0,9.0,47,0.00,,,-99.99,,2013-01-17 07:32:00,
2013-01-17 00:42:00,25.0,8.0,-100.00,WSW,243,6.0,9.0,48,0.00,,,-99.99,,2013-01-17 07:42:00,
2013-01-17 00:52:00,23.0,8.0,-100.00,SSE,167,2.0,5.0,51,0.00,,,-99.99,,2013-01-17 07:52:00,
2013-01-17 01:02:00,21.0,8.0,-100.00,ESE,123,2.0,4.0,57,0.00,,,-99.99,,2013-01-17 08:02:00,
2013-01-17 01:12:00,18.0,9.0,-100.00,ESE,113,3.0,7.0,66,0.00,,,-99.99,,2013-01-17 08:12:00,
2013-01-17 01:22:00,18.0,9.0,-100.00,SE,133,6.0,9.0,67,0.00,,,-99.99,,2013-01-17 08:22:00,
2013-01-17 01:32:00,18.0,9.0,-100.00,SE,124,4.0,9.0,65,0.00,,,-99.99,,2013-01-17 08:32:00,
2013-01-17 01:43:00,18.0,9.0,-100.00,ESE,114,4.0,10.0,67,0.00,,,-99.99,,2013-01-17 08:43:00,
2013-01-17 01:52:00,18.0,9.0,-100.00,SE,131,4.0,8.0,68,0.00,,,-99.99,,2013-01-17 08:52:00,
2013-01-17 02:02:00,18.0,9.0,-100.00,SE,143,4.0,7.0,67,0.00,,,-99.99,,2013-01-17 09:02:00,
2013-01-17 02:12:00,19.0,10.0,-100.00,SE,144,4.0,7.0,68,0.00,,,-99.99,,2013-01-17 09:12:00,
2013-01-17 02:22:00,19.0,9.0,-100.00,ESE,120,6.0,11.0,66,0.00,,,-99.99,,2013-01-17 09:22:00,
2013-01-17 02:32:00,18.0,9.0,-100.00,SE,140,4.0,9.0,68,0.00,,,-99.99,,2013-01-17 09:32:00,
2013-01-17 02:42:00,18.0,9.0,-100.00,SE,126,6.0,11.0,66,0.00,,,-99.99,,2013-01-17 09:42:00,
2013-01-17 02:52:00,18.0,9.0,-100.00,SE,131,5.0,9.0,69,0.00,,,-99.99,,2013-01-17 09:52:00,
2013-01-17 03:02:00,16.0,9.0,-100.00,SE,136,4.0,10.0,72,0.00,,,-99.99,,2013-01-17 10:02:00,
2013-01-17 03:12:00,16.0,8.0,-100.00,SE,137,4.0,7.0,70,0.00,,,-99.99,,2013-01-17 10:12:00,
2013-01-17 03:22:00,16.0,9.0,-100.00,SE,134,4.0,7.0,72,0.00,,,-99.99,,2013-01-17 10:22:00,
2013-01-17 03:32:00,14.0,8.0,-100.00,ESE,123,4.0,7.0,75,0.00,,,-99.99,,2013-01-17 10:32:00,
2013-01-17 03:42:00,15.0,9.0,-100.00,SE,145,4.0,6.0,74,0.00,,,-99.99,,2013-01-17 10:42:00,
2013-01-17 03:52:00,16.0,8.0,-100.00,SE,126,2.0,4.0,72,0.00,,,-99.99,,2013-01-17 10:52:00,
2013-01-17 04:02:00,15.0,8.0,-100.00,SSE,161,2.0,3.0,72,0.00,,,-99.99,,2013-01-17 11:02:00,
2013-01-17 04:12:00,15.0,8.0,-100.00,South,175,2.0,4.0,73,0.00,,,-99.99,,2013-01-17 11:12:00,
2013-01-17 04:22:00,17.0,8.0,-100.00,WSW,239,2.0,5.0,68,0.00,,,-99.99,,2013-01-17 11:22:00,
2013-01-17 04:33:00,15.0,7.0,-100.00,SE,136,1.0,4.0,70,0.00,,,-99.99,,2013-01-17 11:33:00,
2013-01-17 04:42:00,15.0,8.0,-100.00,SE,126,1.0,2.0,73,0.00,,,-99.99,,2013-01-17 11:42:00,
2013-01-17 04:52:00,17.0,8.0,-100.00,ESE,123,1.0,3.0,68,0.00,,,-99.99,,2013-01-17 11:52:00,
2013-01-17 05:02:00,16.0,8.0,-100.00,ESE,110,1.0,3.0,71,0.00,,,-99.99,,2013-01-17 12:02:00,
2013-01-17 05:12:00,16.0,8.0,-100.00,SSE,148,1.0,3.0,70,0.00,,,-99.99,,2013-01-17 12:12:00,
2013-01-17 05:22:00,17.0,8.0,-100.00,SSE,167,0.0,2.0,69,0.00,,,-99.99,,2013-01-17 12:22:00,
2013-01-17 05:32:00,15.0,6.0,-100.00,SE,144,1.0,2.0,67,0.00,,,-99.99,,2013-01-17 12:32:00,
2013-01-17 05:42:00,15.0,7.0,-100.00,SE,145,2.0,4.0,69,0.00,,,-99.99,,2013-01-17 12:42:00,
2013-01-17 05:52:00,15.0,8.0,-100.00,SE,128,2.0,4.0,72,0.00,,,-99.99,,2013-01-17 12:52:00,
2013-01-17 06:03:00,15.0,6.0,-100.00,SSE,147,2.0,4.0,68,0.00,,,-99.99,,2013-01-17 13:03:00,
2013-01-17 06:12:00,17.0,8.0,-100.00,SE,144,3.0,4.0,67,0.00,,,-99.99,,2013-01-17 13:12:00,
2013-01-17 06:22:00,16.0,8.0,-100.00,East,82,1.0,4.0,69,0.00,,,-99.99,,2013-01-17 13:22:00,
2013-01-17 06:33:00,15.0,7.0,-100.00,ENE,78,1.0,2.0,70,0.00,,,-99.99,,2013-01-17 13:33:00,
2013-01-17 06:42:00,16.0,7.0,-100.00,West,270,1.0,3.0,69,0.00,,,-99.99,,2013-01-17 13:42:00,
2013-01-17 06:52:00,17.0,8.0,-100.00,SW,230,2.0,4.0,68,0.00,,,-99.99,,2013-01-17 13:52:00,
2013-01-17 07:03:00,15.0,7.0,-100.00,SW,236,1.0,3.0,69,0.00,,,-99.99,,2013-01-17 14:03:00,
2013-01-17 07:12:00,16.0,7.0,-100.00,NW,323,1.0,2.0,68,0.00,,,-99.99,,2013-01-17 14:12:00,
2013-01-17 07:23:00,16.0,8.0,-100.00,SE,141,1.0,2.0,71,0.00,,,-99.99,,2013-01-17 14:23:00,
2013-01-17 07:33:00,14.0,5.0,-100.00,SSE,162,2.0,6.0,68,0.00,,,-99.99,,2013-01-17 14:33:00,
2013-01-17 07:42:00,16.0,7.0,-100.00,SE,144,2.0,4.0,68,0.00,,,-99.99,,2013-01-17 14:42:00,
2013-01-17 07:53:00,17.0,8.0,-100.00,East,90,1.0,3.0,67,0.00,,,-99.99,,2013-01-17 14:53:00,
2013-01-17 08:03:00,18.0,8.0,-100.00,SE,138,2.0,4.0,65,0.00,,,-99.99,,2013-01-17 15:03:00,
2013-01-17 08:12:00,18.0,7.0,-100.00,ESE,107,2.0,4.0,61,0.00,,,-99.99,,2013-01-17 15:12:00,
2013-01-17 08:22:00,19.0,8.0,-100.00,ESE,103,2.0,4.0,60,0.00,,,-99.99,,2013-01-17 15:22:00,
2013-01-17 08:33:00,19.0,8.0,-100.00,NW,319,2.0,4.0,62,0.00,,,-99.99,,2013-01-17 15:33:00,
2013-01-17 08:43:00,18.0,8.0,-100.00,WNW,284,4.0,5.0,62,0.00,,,-99.99,,2013-01-17 15:43:00,
2013-01-17 08:52:00,20.0,8.0,-100.00,West,268,3.0,4.0,59,0.00,,,-99.99,,2013-01-17 15:52:00,
2013-01-17 09:02:00,22.0,9.0,-100.00,NW,322,2.0,4.0,57,0.00,,,-99.99,,2013-01-17 16:02:00,
2013-01-17 09:12:00,23.0,10.0,-100.00,East,83,2.0,4.0,57,0.00,,,-99.99,,2013-01-17 16:12:00,
2013-01-17 09:22:00,26.0,10.0,-100.00,ESE,119,2.0,4.0,51,0.00,,,-99.99,,2013-01-17 16:22:00,
2013-01-17 09:33:00,25.0,10.0,-100.00,NE,41,3.0,6.0,52,0.00,,,-99.99,,2013-01-17 16:33:00,
2013-01-17 09:43:00,26.0,11.0,-100.00,SSE,150,1.0,3.0,51,0.00,,,-99.99,,2013-01-17 16:43:00,
2013-01-17 09:52:00,24.0,11.0,-100.00,ENE,69,3.0,6.0,58,0.00,,,-99.99,,2013-01-17 16:52:00,
2013-01-17 10:03:00,24.0,10.0,-100.00,SE,134,2.0,4.0,56,0.00,,,-99.99,,2013-01-17 17:03:00,
2013-01-17 10:12:00,25.0,11.0,-100.00,SE,137,2.0,4.0,55,0.00,,,-99.99,,2013-01-17 17:12:00,
2013-01-17 10:22:00,26.0,11.0,-100.00,ESE,119,2.0,4.0,52,0.00,,,-99.99,,2013-01-17 17:22:00,
2013-01-17 10:33:00,27.0,11.0,-100.00,SSE,155,1.0,4.0,49,0.00,,,-99.99,,2013-01-17 17:33:00,
2013-01-17 10:43:00,27.0,11.0,-100.00,ESE,104,2.0,4.0,50,0.00,,,-99.99,,2013-01-17 17:43:00,
2013-01-17 10:53:00,26.0,11.0,-100.00,ENE,66,4.0,6.0,53,0.00,,,-99.99,,2013-01-17 17:53:00,
2013-01-17 11:03:00,26.0,11.0,-100.00,NE,56,2.0,6.0,54,0.00,,,-99.99,,2013-01-17 18:03:00,
2013-01-17 11:12:00,26.0,12.0,-100.00,NE,49,2.0,6.0,55,0.00,,,-99.99,,2013-01-17 18:12:00,
2013-01-17 11:22:00,26.0,12.0,-100.00,ENE,78,3.0,6.0,55,0.00,,,-99.99,,2013-01-17 18:22:00,
2013-01-17 11:33:00,27.0,12.0,-100.00,East,93,2.0,4.0,52,0.00,,,-99.99,,2013-01-17 18:33:00,
2013-01-17 11:43:00,29.0,13.0,-100.00,NE,47,1.0,3.0,51,0.00,,,-99.99,,2013-01-17 18:43:00,
2013-01-17 11:53:00,30.0,14.0,-100.00,NE,35,1.0,4.0,50,0.00,,,-99.99,,2013-01-17 18:53:00,
2013-01-17 12:03:00,30.0,14.0,-100.00,NE,49,1.0,4.0,51,0.00,,,-99.99,,2013-01-17 19:03:00,
2013-01-17 12:12:00,35.0,14.0,-100.00,NE,35,1.0,2.0,43,0.00,,,-99.99,,2013-01-17 19:12:00,
2013-01-17 12:22:00,31.0,14.0,-100.00,ENE,75,2.0,4.0,49,0.00,,,-99.99,,2013-01-17 19:22:00,
2013-01-17 12:33:00,32.0,14.0,-100.00,ESE,103,2.0,4.0,48,0.00,,,-99.99,,2013-01-17 19:33:00,
2013-01-17 12:53:00,33.0,15.0,-100.00,East,97,2.0,4.0,46,0.00,,,-99.99,,2013-01-17 19:53:00,
2013-01-17 13:03:00,34.0,15.0,-100.00,East,85,3.0,7.0,46,0.00,,,-99.99,,2013-01-17 20:03:00,
2013-01-17 13:12:00,34.0,15.0,-100.00,ENE,73,4.0,7.0,45,0.00,,,-99.99,,2013-01-17 20:12:00,
2013-01-17 13:23:00,33.0,17.0,-100.00,ENE,75,6.0,8.0,51,0.00,,,-99.99,,2013-01-17 20:23:00,
2013-01-17 13:33:00,32.0,15.0,-100.00,East,96,6.0,8.0,49,0.00,,,-99.99,,2013-01-17 20:33:00,
2013-01-17 13:43:00,32.0,16.0,-100.00,ESE,106,6.0,7.0,51,0.00,,,-99.99,,2013-01-17 20:43:00,
2013-01-17 13:53:00,32.0,17.0,-100.00,SE,128,5.0,8.0,53,0.00,,,-99.99,,2013-01-17 20:53:00,
2013-01-17 14:03:00,31.0,16.0,-100.00,SE,133,6.0,9.0,53,0.00,,,-99.99,,2013-01-17 21:03:00,
2013-01-17 14:12:00,32.0,17.0,-100.00,SE,133,6.0,9.0,52,0.00,,,-99.99,,2013-01-17 21:12:00,
2013-01-17 14:23:00,33.0,17.0,-100.00,ESE,109,6.0,9.0,51,0.00,,,-99.99,,2013-01-17 21:23:00,
2013-01-17 14:33:00,34.0,16.0,-100.00,SE,130,3.0,8.0,47,0.00,,,-99.99,,2013-01-17 21:33:00,
2013-01-17 14:42:00,33.0,16.0,-100.00,SSE,147,4.0,6.0,49,0.00,,,-99.99,,2013-01-17 21:42:00,
2013-01-17 14:52:00,32.0,16.0,-100.00,SE,140,6.0,9.0,51,0.00,,,-99.99,,2013-01-17 21:52:00,
2013-01-17 15:03:00,33.0,17.0,-100.00,ESE,104,4.0,9.0,52,0.00,,,-99.99,,2013-01-17 22:03:00,
2013-01-17 15:12:00,35.0,17.0,-100.00,NE,48,4.0,7.0,48,0.00,,,-99.99,,2013-01-17 22:12:00,
2013-01-17 15:22:00,37.0,16.0,-100.00,SW,220,4.0,10.0,42,0.00,,,-99.99,,2013-01-17 22:22:00,
2013-01-17 15:33:00,35.0,17.0,-100.00,ENE,65,4.0,9.0,47,0.00,,,-99.99,,2013-01-17 22:33:00,
2013-01-17 15:42:00,34.0,17.0,-100.00,East,79,6.0,11.0,49,0.00,,,-99.99,,2013-01-17 22:42:00,
2013-01-17 15:52:00,34.0,17.0,-100.00,SE,144,4.0,9.0,49,0.00,,,-99.99,,2013-01-17 22:52:00,
2013-01-17 16:03:00,30.0,16.0,-100.00,ESE,106,6.0,10.0,56,0.00,,,-99.99,,2013-01-17 23:03:00,
2013-01-17 16:12:00,31.0,16.0,-100.00,SE,136,5.0,10.0,55,0.00,,,-99.99,,2013-01-17 23:12:00,
2013-01-17 16:22:00,35.0,13.0,-100.00,SW,222,10.0,20.0,40,0.00,,,-99.99,,2013-01-17 23:22:00,
2013-01-17 16:33:00,35.0,13.0,-100.00,WSW,250,16.0,21.0,40,0.00,,,-99.99,,2013-01-17 23:33:00,
2013-01-17 16:42:00,34.0,13.0,-100.00,WSW,244,17.0,22.0,41,0.00,,,-99.99,,2013-01-17 23:42:00,
2013-01-17 16:52:00,33.0,13.0,-100.00,West,261,13.0,17.0,44,0.00,,,-99.99,,2013-01-17 23:52:00,
2013-01-17 17:02:00,33.0,13.0,-100.00,SW,226,19.0,27.0,43,0.00,,,-99.99,,2013-01-18 00:02:00,
2013-01-17 17:12:00,34.0,13.0,-100.00,SW,229,19.0,27.0,41,0.00,,,-99.99,,2013-01-18 00:12:00,
2013-01-17 17:23:00,33.0,12.0,-100.00,SW,227,20.0,26.0,42,0.00,,,-99.99,,2013-01-18 00:23:00,
2013-01-17 17:32:00,33.0,12.0,-100.00,SW,227,19.0,26.0,41,0.00,,,-99.99,,2013-01-18 00:32:00,
2013-01-17 17:42:00,32.0,12.0,-100.00,SW,233,19.0,24.0,44,0.00,,,-99.99,,2013-01-18 00:42:00,
2013-01-17 17:52:00,32.0,12.0,-100.00,SW,232,19.0,26.0,43,0.00,,,-99.99,,2013-01-18 00:52:00,
2013-01-17 18:03:00,31.0,11.0,-100.00,SW,233,21.0,26.0,42,0.00,,,-99.99,,2013-01-18 01:03:00,
2013-01-17 18:12:00,31.0,11.0,-100.00,WSW,240,18.0,25.0,41,0.00,,,-99.99,,2013-01-18 01:12:00,
2013-01-17 18:22:00,31.0,7.0,-100.00,WSW,240,17.0,24.0,35,0.00,,,-99.99,,2013-01-18 01:22:00,
2013-01-17 18:33:00,32.0,4.0,-100.00,WSW,253,19.0,29.0,30,0.00,,,-99.99,,2013-01-18 01:33:00,
2013-01-17 18:42:00,31.0,6.0,-100.00,WSW,251,20.0,29.0,33,0.00,,,-99.99,,2013-01-18 01:42:00,
2013-01-17 18:52:00,31.0,5.0,-100.00,WSW,251,22.0,30.0,33,0.00,,,-99.99,,2013-01-18 01:52:00,
2013-01-17 19:02:00,32.0,4.0,-100.00,WSW,244,24.0,32.0,31,0.00,,,-99.99,,2013-01-18 02:02:00,
2013-01-17 19:12:00,32.0,4.0,-100.00,WSW,246,24.0,32.0,30,0.00,,,-99.99,,2013-01-18 02:12:00,
2013-01-17 19:22:00,33.0,3.0,-100.00,WSW,251,24.0,34.0,28,0.00,,,-99.99,,2013-01-18 02:22:00,
2013-01-17 19:32:00,33.0,3.0,-100.00,WSW,250,26.0,35.0,28,0.00,,,-99.99,,2013-01-18 02:32:00,
2013-01-17 19:42:00,33.0,3.0,-100.00,WSW,256,26.0,37.0,28,0.00,,,-99.99,,2013-01-18 02:42:00,
2013-01-17 19:52:00,32.0,4.0,-100.00,West,270,23.0,31.0,30,0.00,,,-99.99,,2013-01-18 02:52:00,
2013-01-17 20:02:00,32.0,4.0,-100.00,West,267,22.0,32.0,30,0.00,,,-99.99,,2013-01-18 03:02:00,
2013-01-17 20:12:00,32.0,4.0,-100.00,WSW,256,26.0,34.0,30,0.00,,,-99.99,,2013-01-18 03:12:00,
2013-01-17 20:22:00,31.0,4.0,-100.00,WSW,251,25.0,34.0,31,0.00,,,-99.99,,2013-01-18 03:22:00,
2013-01-17 20:33:00,32.0,3.0,-100.00,WSW,254,22.0,33.0,29,0.00,,,-99.99,,2013-01-18 03:33:00,
2013-01-17 20:42:00,32.0,3.0,-100.00,WSW,254,23.0,32.0,29,0.00,,,-99.99,,2013-01-18 03:42:00,
2013-01-17 20:52:00,32.0,3.0,-100.00,WSW,254,24.0,40.0,28,0.00,,,-99.99,,2013-01-18 03:52:00,
2013-01-17 21:02:00,32.0,3.0,-100.00,WSW,256,24.0,32.0,29,0.00,,,-99.99,,2013-01-18 04:02:00,
2013-01-17 21:12:00,32.0,3.0,-100.00,WSW,257,24.0,32.0,29,0.00,,,-99.99,,2013-01-18 04:12:00,
2013-01-17 21:22:00,31.0,3.0,-100.00,WSW,258,23.0,34.0,29,0.00,,,-99.99,,2013-01-18 04:22:00,
2013-01-17 21:32:00,31.0,3.0,-100.00,WSW,258,23.0,31.0,29,0.00,,,-99.99,,2013-01-18 04:32:00,
2013-01-17 21:42:00,31.0,4.0,-100.00,WSW,258,22.0,30.0,30,0.00,,,-99.99,,2013-01-18 04:42:00,
2013-01-17 21:52:00,31.0,3.0,-100.00,WSW,253,22.0,35.0,30,0.00,,,-99.99,,2013-01-18 04:52:00,
2013-01-17 22:03:00,32.0,3.0,-100.00,WSW,256,26.0,35.0,28,0.00,,,-99.99,,2013-01-18 05:03:00,
2013-01-17 22:12:00,32.0,3.0,-100.00,WSW,256,25.0,35.0,29,0.00,,,-99.99,,2013-01-18 05:12:00,
2013-01-17 22:22:00,33.0,3.0,-100.00,WSW,251,27.0,37.0,28,0.00,,,-99.99,,2013-01-18 05:22:00,
2013-01-17 22:33:00,33.0,3.0,-100.00,WSW,254,27.0,38.0,27,0.00,,,-99.99,,2013-01-18 05:33:00,
2013-01-17 22:42:00,33.0,2.0,-100.00,WSW,254,24.0,34.0,27,0.00,,,-99.99,,2013-01-18 05:42:00,
2013-01-17 22:52:00,33.0,2.0,-100.00,WSW,247,26.0,41.0,26,0.00,,,-99.99,,2013-01-18 05:52:00,
2013-01-17 23:02:00,33.0,2.0,-100.00,WSW,241,27.0,40.0,26,0.00,,,-99.99,,2013-01-18 06:02:00,
2013-01-17 23:12:00,33.0,2.0,-100.00,WSW,243,27.0,40.0,27,0.00,,,-99.99,,2013-01-18 06:12:00,
2013-01-17 23:22:00,33.0,2.0,-100.00,WSW,247,29.0,44.0,27,0.00,,,-99.99,,2013-01-18 06:22:00,
2013-01-17 23:32:00,32.0,3.0,-100.00,West,260,28.0,40.0,28,0.00,,,-99.99,,2013-01-18 06:32:00,
2013-01-17 23:43:00,32.0,3.0,-100.00,West,263,27.0,39.0,29,0.00,,,-99.99,,2013-01-18 06:43:00,
2013-01-17 23:52:00,32.0,3.0,-100.00,WSW,251,29.0,41.0,29,0.00,,,-99.99,,2013-01-18 06:52:00,